Time;durP1;ratioP1;P1;durP2;ratioP2;P2;SDS_P1;SDS_P2;PMS_P1;PMS_P2;Temp;Humidity;BMP_temperature;BMP_pressure;BME280_temperature;BME280_humidity;BME280_pressure;Samples;Min_cycle;Max_cycle;Signal;HPM_P1;HPM_P2
2021/03/16 00:01:28;;;;;;;4.22;1.50;;;22.00;72.60;;;;;;5095612;28;20485;-61
2021/03/16 00:03:55;;;;;;;5.45;1.75;;;22.00;73.00;;;;;;5095181;28;20024;-63
2021/03/16 00:06:23;;;;;;;4.40;1.23;;;22.00;72.60;;;;;;5095045;28;20048;-64
2021/03/16 00:08:50;;;;;;;4.65;1.83;;;22.10;72.70;;;;;;5095491;28;20496;-64
2021/03/16 00:11:17;;;;;;;6.40;1.40;;;22.10;72.30;;;;;;5095462;28;20039;-63
2021/03/16 00:13:45;;;;;;;10.52;2.15;;;22.10;72.70;;;;;;5095098;28;20027;-61
2021/03/16 00:16:12;;;;;;;4.70;1.90;;;22.10;72.10;;;;;;5095018;28;20673;-69
2021/03/16 00:18:40;;;;;;;3.38;1.33;;;22.10;72.20;;;;;;5095135;28;20024;-61
2021/03/16 00:21:07;;;;;;;2.90;1.50;;;22.20;72.30;;;;;;5077052;28;20024;-62
2021/03/16 00:23:34;;;;;;;3.55;1.40;;;22.20;72.50;;;;;;5095423;28;20024;-66
2021/03/16 00:26:02;;;;;;;5.68;1.42;;;22.20;72.60;;;;;;5095207;28;20167;-63
2021/03/16 00:28:30;;;;;;;8.52;1.48;;;22.20;73.00;;;;;;5094738;28;20132;-62
2021/03/16 00:31:00;;;;;;;3.83;1.30;;;22.20;72.70;;;;;;5095101;28;20024;-64
2021/03/16 00:33:28;;;;;;;4.63;1.40;;;22.20;72.50;;;;;;5094882;28;20082;-59
2021/03/16 00:35:55;;;;;;;3.70;1.65;;;22.20;72.40;;;;;;5094799;28;20031;-61
2021/03/16 00:38:23;;;;;;;2.58;1.48;;;22.20;72.20;;;;;;5076863;28;20479;-62
2021/03/16 00:40:50;;;;;;;3.50;1.20;;;22.20;72.30;;;;;;5094662;28;20024;-57
2021/03/16 00:43:21;;;;;;;4.32;1.40;;;22.20;72.50;;;;;;5094256;28;20024;-54
2021/03/16 00:45:48;;;;;;;4.15;1.75;;;22.20;72.60;;;;;;5094271;28;20032;-57
2021/03/16 00:48:19;;;;;;;3.50;1.40;;;22.20;72.50;;;;;;5094626;28;20032;-57
2021/03/16 00:50:47;;;;;;;3.20;1.47;;;22.20;72.60;;;;;;5094131;28;20016;-56
2021/03/16 00:53:14;;;;;;;2.25;0.90;;;22.20;72.60;;;;;;5093998;28;20051;-57
2021/03/16 00:55:41;;;;;;;4.60;1.45;;;22.20;73.10;;;;;;5072072;28;20032;-56
2021/03/16 00:58:09;;;;;;;3.63;1.23;;;22.20;73.00;;;;;;5068068;28;20029;-55
2021/03/16 01:00:36;;;;;;;3.25;1.33;;;22.20;73.10;;;;;;5071660;28;20035;-63
2021/03/16 01:03:04;;;;;;;3.30;1.27;;;22.20;74.20;;;;;;5067842;28;20023;-50
2021/03/16 01:05:34;;;;;;;3.95;1.70;;;22.30;73.70;;;;;;5069886;28;20114;-53
2021/03/16 01:08:01;;;;;;;6.20;1.50;;;22.30;73.30;;;;;;5067912;28;20035;-64
2021/03/16 01:10:31;;;;;;;4.40;1.25;;;22.40;73.00;;;;;;5071892;28;20032;-61
2021/03/16 01:12:58;;;;;;;2.92;1.35;;;22.40;73.20;;;;;;5069705;28;20034;-66
2021/03/16 01:15:26;;;;;;;2.75;1.33;;;22.50;73.20;;;;;;5070704;28;20093;-53
2021/03/16 01:17:53;;;;;;;2.13;1.10;;;22.50;73.60;;;;;;5068072;28;20109;-58
2021/03/16 01:20:24;;;;;;;2.72;1.15;;;22.60;72.90;;;;;;5071050;28;20421;-61
2021/03/16 01:22:52;;;;;;;3.47;1.40;;;22.70;72.50;;;;;;5070837;28;20111;-53
2021/03/16 01:25:19;;;;;;;6.90;1.13;;;22.70;72.60;;;;;;5071087;28;20025;-56
2021/03/16 01:27:47;;;;;;;2.10;1.00;;;22.90;72.40;;;;;;5065806;28;20041;-54
2021/03/16 01:30:16;;;;;;;4.60;1.60;;;22.90;72.20;;;;;;5069912;28;20029;-58
2021/03/16 01:32:43;;;;;;;4.88;1.65;;;23.00;73.00;;;;;;5069386;28;20047;-58
2021/03/16 01:35:13;;;;;;;4.18;1.60;;;23.10;72.10;;;;;;5052275;28;20017;-59
2021/03/16 01:37:42;;;;;;;5.13;1.50;;;23.10;72.40;;;;;;5066945;28;20090;-56
2021/03/16 01:40:15;;;;;;;3.13;1.42;;;23.10;71.20;;;;;;5070919;28;20507;-63
2021/03/16 01:42:43;;;;;;;4.45;1.10;;;23.10;71.20;;;;;;5052155;28;20024;-54
2021/03/16 01:45:14;;;;;;;5.22;1.25;;;23.20;71.40;;;;;;5069752;28;20166;-56
2021/03/16 01:47:44;;;;;;;4.78;1.30;;;23.20;71.50;;;;;;5066789;28;20462;-66
2021/03/16 01:50:13;;;;;;;3.50;1.38;;;23.20;71.10;;;;;;5070554;28;20044;-63
2021/03/16 01:52:42;;;;;;;6.03;1.40;;;23.20;70.90;;;;;;5069799;28;20028;-52
2021/03/16 01:55:11;;;;;;;4.88;1.80;;;23.30;71.00;;;;;;5070138;28;20378;-63
2021/03/16 01:57:40;;;;;;;8.35;1.08;;;23.30;71.00;;;;;;5067389;28;20078;-61
2021/03/16 02:00:09;;;;;;;3.60;1.20;;;23.30;71.20;;;;;;5051573;28;20472;-57
2021/03/16 02:02:37;;;;;;;5.93;1.50;;;23.30;71.30;;;;;;5066597;28;20044;-66
2021/03/16 02:05:11;;;;;;;2.67;1.50;;;23.30;71.50;;;;;;5065887;28;20128;-59
2021/03/16 02:08:00;;;;;;;2.83;1.33;;;23.30;71.50;;;;;;5063972;28;20478;-59
2021/03/16 02:10:43;;;;;;;3.22;1.27;;;23.30;71.80;;;;;;5069629;28;20151;-60
2021/03/16 02:13:24;;;;;;;3.53;1.27;;;23.30;71.90;;;;;;5068856;28;20021;-59
2021/03/16 02:15:57;;;;;;;7.00;1.45;;;23.30;72.00;;;;;;5067502;28;20024;-60
2021/03/16 02:18:29;;;;;;;4.40;1.77;;;23.30;72.10;;;;;;5065327;28;20051;-57
2021/03/16 02:21:19;;;;;;;2.75;1.00;;;23.30;72.20;;;;;;5069215;28;20020;-59
2021/03/16 02:24:10;;;;;;;4.10;1.55;;;23.30;72.30;;;;;;5066858;28;20032;-56
2021/03/16 02:27:02;;;;;;;4.20;1.70;;;23.30;72.30;;;;;;5066272;28;20423;-57
2021/03/16 02:29:49;;;;;;;2.45;1.17;;;23.30;72.40;;;;;;5068721;28;20545;-57
2021/03/16 02:32:34;;;;;;;4.35;1.50;;;23.30;72.50;;;;;;5066227;28;20044;-65
2021/03/16 02:35:04;;;;;;;5.63;1.50;;;23.20;72.70;;;;;;5069485;28;20024;-63
2021/03/16 02:37:38;;;;;;;6.30;2.00;;;23.20;73.10;;;;;;5048437;28;20056;-61
2021/03/16 02:40:27;;;;;;;2.63;1.20;;;23.20;73.30;;;;;;5050915;28;20028;-65
2021/03/16 02:42:55;;;;;;;3.08;1.25;;;23.20;73.50;;;;;;5066712;28;20102;-60
2021/03/16 02:45:26;;;;;;;8.32;1.50;;;23.30;73.70;;;;;;5067531;28;20063;-61
2021/03/16 02:47:54;;;;;;;5.10;1.10;;;23.30;73.70;;;;;;5066162;28;20025;-61
2021/03/16 02:50:23;;;;;;;4.32;1.40;;;23.30;73.90;;;;;;5069956;28;20253;-56
2021/03/16 02:52:52;;;;;;;2.95;1.17;;;23.30;73.70;;;;;;5068516;28;20086;-58
2021/03/16 02:55:20;;;;;;;3.95;1.30;;;23.30;74.10;;;;;;5065956;28;20331;-57
2021/03/16 02:58:06;;;;;;;5.05;1.05;;;23.30;74.20;;;;;;5062416;28;20074;-52
2021/03/16 03:01:19;;;;;;;1.80;1.10;;;23.30;73.80;;;;;;5051871;28;20056;-55
2021/03/16 03:03:56;;;;;;;5.15;1.50;;;23.30;74.10;;;;;;5027550;28;20036;-58
2021/03/16 03:07:15;;;;;;;6.50;1.52;;;23.30;74.50;;;;;;5056925;28;20068;-53
2021/03/16 03:09:46;;;;;;;;;;;23.30;74.40;;;;;;5056891;28;20024;-60
2021/03/16 03:12:26;;;;;;;3.47;1.30;;;23.20;74.40;;;;;;5050011;28;19984;-60
2021/03/16 03:15:19;;;;;;;2.55;1.00;;;23.30;74.70;;;;;;5069014;28;20062;-59
2021/03/16 03:17:48;;;;;;;2.55;1.20;;;23.20;74.80;;;;;;5057697;28;20060;-59
2021/03/16 03:20:39;;;;;;;2.42;1.30;;;23.20;74.90;;;;;;5069455;28;20108;-58
2021/03/16 03:23:31;;;;;;;4.85;1.30;;;23.20;74.90;;;;;;5068764;28;20029;-56
2021/03/16 03:26:45;;;;;;;;;;;;;;;;;;;;;
2021/03/16 03:29:14;;;;;;;2.65;1.35;;;23.20;75.30;;;;;;5066349;28;20024;-58
2021/03/16 03:32:31;;;;;;;7.03;1.80;;;23.10;75.20;;;;;;5068234;28;20078;-57
2021/03/16 03:35:07;;;;;;;7.30;2.25;;;23.10;75.20;;;;;;5050297;28;20485;-53
2021/03/16 03:37:40;;;;;;;8.57;2.53;;;23.10;75.20;;;;;;5065893;28;20037;-54
2021/03/16 03:40:15;;;;;;;5.70;2.53;;;23.10;75.40;;;;;;5068346;28;20111;-56
2021/03/16 03:42:44;;;;;;;7.05;2.65;;;23.20;75.40;;;;;;5069169;28;20031;-59
2021/03/16 03:45:14;;;;;;;6.88;2.67;;;23.20;75.30;;;;;;5069707;28;20032;-55
2021/03/16 03:47:44;;;;;;;5.43;1.65;;;23.20;75.30;;;;;;5071343;28;20033;-56
2021/03/16 03:50:17;;;;;;;8.98;2.22;;;23.10;75.30;;;;;;5072332;28;20108;-65
2021/03/16 03:53:00;;;;;;;7.35;2.08;;;23.20;75.20;;;;;;5054538;28;20029;-52
2021/03/16 03:55:29;;;;;;;4.28;1.63;;;23.20;75.50;;;;;;5065212;28;20048;-54
2021/03/16 03:57:57;;;;;;;6.97;1.85;;;23.20;75.10;;;;;;5072089;28;20031;-60
2021/03/16 04:00:25;;;;;;;7.18;1.75;;;23.20;75.30;;;;;;5072183;28;20115;-54
2021/03/16 04:02:55;;;;;;;5.70;1.83;;;23.20;75.50;;;;;;5071950;28;20028;-53
2021/03/16 04:08:18;;;;;;;8.43;2.08;;;23.30;75.20;;;;;;5015338;28;20040;-53
2021/03/16 04:10:48;;;;;;;4.53;1.52;;;23.30;75.30;;;;;;5071856;28;20021;-55
2021/03/16 04:13:19;;;;;;;4.85;1.60;;;23.30;74.70;;;;;;5071780;28;20078;-52
2021/03/16 04:15:51;;;;;;;7.15;2.42;;;23.40;75.00;;;;;;5071835;28;20669;-56
2021/03/16 04:18:18;;;;;;;;;;;23.40;75.00;;;;;;5054148;28;20031;-53
2021/03/16 04:20:48;;;;;;;6.18;2.08;;;23.40;74.60;;;;;;5071803;28;19904;-51
2021/03/16 04:23:16;;;;;;;5.72;2.63;;;23.40;74.80;;;;;;5071382;28;20047;-57
2021/03/16 04:25:47;;;;;;;8.82;2.38;;;23.40;74.70;;;;;;5071729;28;20475;-53
2021/03/16 04:28:22;;;;;;;5.60;2.15;;;23.40;74.60;;;;;;5071635;28;20060;-55
2021/03/16 04:30:49;;;;;;;6.20;2.03;;;23.40;74.30;;;;;;5070268;28;20028;-54
2021/03/16 04:33:17;;;;;;;9.23;2.25;;;23.40;75.20;;;;;;5074803;28;20450;-54
2021/03/16 04:35:45;;;;;;;7.93;2.38;;;23.40;74.30;;;;;;5075322;28;20031;-53
2021/03/16 04:38:19;;;;;;;6.43;2.35;;;23.40;75.60;;;;;;5074884;28;20104;-57
2021/03/16 04:40:50;;;;;;;11.43;3.35;;;23.40;75.10;;;;;;5075171;28;20027;-56
2021/03/16 04:43:18;;;;;;;8.07;2.30;;;23.40;74.60;;;;;;5074757;28;20078;-51
2021/03/16 04:45:48;;;;;;;12.60;3.08;;;23.40;74.70;;;;;;5075076;28;20033;-55
2021/03/16 04:48:16;;;;;;;5.90;1.60;;;23.40;74.80;;;;;;5074867;28;20386;-58
2021/03/16 04:50:43;;;;;;;4.47;2.00;;;23.40;75.60;;;;;;5057698;28;20104;-64
2021/03/16 04:53:11;;;;;;;6.68;2.00;;;23.40;75.40;;;;;;5075074;28;20025;-62
2021/03/16 04:55:38;;;;;;;5.60;1.88;;;23.40;75.20;;;;;;5075145;28;20025;-56
2021/03/16 04:58:06;;;;;;;4.32;1.95;;;23.40;75.70;;;;;;5074868;28;20025;-59
2021/03/16 05:00:33;;;;;;;6.72;2.60;;;23.40;75.40;;;;;;5074769;28;20021;-55
2021/03/16 05:03:19;;;;;;;8.25;2.40;;;23.30;75.50;;;;;;5074587;28;20363;-56
2021/03/16 05:05:50;;;;;;;9.38;2.78;;;23.30;75.40;;;;;;5057740;28;20044;-60
2021/03/16 05:08:17;;;;;;;9.38;1.98;;;23.30;76.60;;;;;;5073350;28;20427;-59
2021/03/16 05:10:44;;;;;;;4.68;2.22;;;23.30;76.00;;;;;;5073811;28;20071;-61
2021/03/16 05:13:12;;;;;;;6.68;1.90;;;23.30;75.40;;;;;;5074180;28;20025;-53
2021/03/16 05:15:40;;;;;;;4.35;2.22;;;23.30;75.50;;;;;;5056985;28;20054;-50
2021/03/16 05:18:08;;;;;;;4.63;1.73;;;23.30;75.30;;;;;;5074549;28;20029;-54
2021/03/16 05:20:35;;;;;;;8.23;2.05;;;23.30;75.60;;;;;;5073079;28;20122;-61
2021/03/16 05:23:03;;;;;;;9.82;1.95;;;23.30;75.70;;;;;;5056415;28;20074;-53
2021/03/16 05:25:31;;;;;;;6.72;1.90;;;23.20;77.00;;;;;;5074488;28;20055;-56
2021/03/16 05:28:28;;;;;;;18.63;2.20;;;23.30;76.90;;;;;;5056388;28;20037;-53
2021/03/16 05:30:56;;;;;;;19.88;2.75;;;23.20;76.40;;;;;;5074405;28;20099;-53
2021/03/16 05:33:24;;;;;;;9.23;2.70;;;23.20;77.30;;;;;;5074117;28;20183;-57
2021/03/16 05:35:51;;;;;;;10.18;2.20;;;23.20;77.10;;;;;;5073869;28;20036;-54
2021/03/16 05:38:32;;;;;;;11.25;1.77;;;23.20;76.60;;;;;;5073973;28;20048;-57
2021/03/16 05:41:04;;;;;;;8.82;2.50;;;23.20;76.60;;;;;;5055534;28;20032;-60
2021/03/16 05:43:32;;;;;;;8.85;1.77;;;23.20;76.90;;;;;;5056216;28;20075;-62
2021/03/16 05:45:59;;;;;;;5.85;2.10;;;23.20;77.40;;;;;;5073655;28;20104;-49
2021/03/16 05:48:30;;;;;;;10.18;3.25;;;23.10;77.10;;;;;;5074058;28;20078;-51
2021/03/16 05:51:01;;;;;;;7.03;2.10;;;23.10;77.60;;;;;;5073759;28;20027;-45
2021/03/16 05:53:29;;;;;;;8.07;1.70;;;23.10;77.80;;;;;;5073861;28;20021;-56
2021/03/16 05:55:58;;;;;;;6.93;2.22;;;23.10;78.00;;;;;;5073439;28;20047;-52
2021/03/16 05:58:26;;;;;;;5.90;2.17;;;23.00;77.70;;;;;;5055771;28;20371;-52
2021/03/16 06:00:54;;;;;;;16.17;2.45;;;23.00;77.80;;;;;;5073327;28;20559;-58
2021/03/16 06:03:21;;;;;;;7.38;2.05;;;23.00;78.10;;;;;;5073421;28;20028;-55
2021/03/16 06:05:52;;;;;;;8.18;2.60;;;23.00;78.70;;;;;;5073350;28;20044;-56
2021/03/16 06:08:19;;;;;;;6.97;2.00;;;23.00;78.40;;;;;;5073486;28;20062;-49
2021/03/16 06:10:47;;;;;;;5.38;2.03;;;23.00;78.30;;;;;;5073432;28;20062;-54
2021/03/16 06:13:16;;;;;;;6.50;2.33;;;23.00;77.90;;;;;;5073232;28;20052;-56
2021/03/16 06:15:44;;;;;;;6.53;2.00;;;23.00;77.90;;;;;;5073639;28;20352;-55
2021/03/16 06:18:30;;;;;;;9.73;2.33;;;23.00;77.80;;;;;;5073391;28;20508;-57
2021/03/16 06:21:03;;;;;;;8.45;2.30;;;22.90;78.10;;;;;;5073194;28;20074;-55
2021/03/16 06:23:34;;;;;;;6.20;2.15;;;22.90;78.10;;;;;;5073709;28;20017;-54
2021/03/16 06:26:02;;;;;;;7.95;1.65;;;22.90;78.30;;;;;;5073155;28;20382;-54
2021/03/16 06:28:35;;;;;;;6.50;2.90;;;22.80;81.10;;;;;;5073049;28;20032;-52
2021/03/16 06:31:09;;;;;;;8.27;5.25;;;22.80;82.20;;;;;;5072421;28;20028;-56
2021/03/16 06:33:37;;;;;;;9.77;5.30;;;22.80;82.30;;;;;;5053378;28;20096;-56
2021/03/16 06:36:08;;;;;;;9.85;4.43;;;22.80;81.10;;;;;;5072995;28;20039;-55
2021/03/16 06:38:41;;;;;;;3.95;2.10;;;22.80;81.50;;;;;;5073213;28;20028;-52
2021/03/16 06:41:14;;;;;;;9.38;8.43;;;22.70;81.90;;;;;;5054558;28;20044;-54
2021/03/16 06:43:51;;;;;;;17.90;15.88;;;22.60;81.50;;;;;;5072915;28;20479;-52
2021/03/16 06:46:40;;;;;;;10.15;9.13;;;22.60;82.30;;;;;;5053036;28;20028;-48
2021/03/16 06:49:15;;;;;;;16.27;14.68;;;22.60;82.10;;;;;;5072477;28;20048;-52
2021/03/16 06:51:43;;;;;;;23.42;17.83;;;22.60;82.10;;;;;;5072783;28;20025;-55
2021/03/16 06:54:15;;;;;;;16.42;13.75;;;22.70;82.30;;;;;;5072221;28;20028;-53
2021/03/16 06:57:10;;;;;;;10.75;9.48;;;22.70;82.70;;;;;;5072954;28;20054;-52
2021/03/16 06:59:37;;;;;;;12.25;10.95;;;22.70;82.90;;;;;;5071375;28;20430;-53
2021/03/16 07:02:17;;;;;;;12.95;11.63;;;22.70;82.60;;;;;;5072054;28;20090;-54
2021/03/16 07:04:48;;;;;;;12.35;10.80;;;22.70;82.70;;;;;;5073452;28;20032;-55
2021/03/16 07:07:17;;;;;;;10.93;6.73;;;22.80;83.10;;;;;;5092399;28;20040;-55
2021/03/16 07:09:46;;;;;;;10.35;9.00;;;22.80;83.40;;;;;;5092522;28;20770;-54
2021/03/16 07:12:20;;;;;;;15.75;4.95;;;22.80;83.60;;;;;;5092161;28;20047;-54
2021/03/16 07:14:49;;;;;;;5.38;3.45;;;22.80;83.50;;;;;;5091949;28;20505;-53
2021/03/16 07:17:23;;;;;;;14.40;13.10;;;22.80;84.00;;;;;;5092231;28;20028;-51
2021/03/16 07:20:00;;;;;;;13.63;11.68;;;22.80;84.00;;;;;;5073804;28;20017;-52
2021/03/16 07:22:36;;;;;;;19.73;12.35;;;22.70;84.80;;;;;;5092242;28;20565;-61
2021/03/16 07:25:09;;;;;;;5.63;3.42;;;22.70;85.10;;;;;;5092519;28;20105;-56
2021/03/16 07:27:37;;;;;;;6.65;5.50;;;22.70;85.50;;;;;;5075088;28;20070;-54
2021/03/16 07:30:12;;;;;;;10.23;2.50;;;22.80;84.70;;;;;;5092239;28;20486;-54
2021/03/16 07:32:40;;;;;;;9.25;3.38;;;22.80;84.90;;;;;;5092094;28;20024;-51
2021/03/16 07:35:08;;;;;;;8.25;2.88;;;22.70;86.00;;;;;;5092214;28;20479;-54
2021/03/16 07:37:36;;;;;;;5.78;2.85;;;22.70;86.10;;;;;;5074324;28;20056;-54
2021/03/16 07:40:10;;;;;;;5.22;2.60;;;22.70;86.20;;;;;;5092347;28;20031;-55
2021/03/16 07:42:42;;;;;;;8.75;2.38;;;22.70;86.30;;;;;;5092181;28;20116;-53
2021/03/16 07:45:33;;;;;;;4.60;2.30;;;22.70;85.80;;;;;;5091984;28;20020;-52
2021/03/16 07:48:39;;;;;;;8.80;3.25;;;22.70;85.60;;;;;;5092803;28;20040;-55
2021/03/16 07:51:36;;;;;;;4.95;2.40;;;22.70;85.50;;;;;;5089697;28;20040;-54
2021/03/16 07:54:06;;;;;;;7.53;2.50;;;22.70;85.40;;;;;;5092726;28;20082;-51
2021/03/16 07:56:36;;;;;;;5.90;3.13;;;22.70;85.20;;;;;;5092424;28;20073;-51
2021/03/16 07:59:30;;;;;;;4.55;2.15;;;22.70;85.10;;;;;;5092628;28;20024;-59
2021/03/16 08:02:08;;;;;;;3.38;2.28;;;22.70;85.10;;;;;;5058873;28;20020;-54
2021/03/16 08:04:43;;;;;;;7.43;2.65;;;22.70;85.10;;;;;;5040574;28;20068;-56
2021/03/16 08:10:38;;;;;;;7.38;2.92;;;22.60;84.90;;;;;;5045434;28;20056;-51
2021/03/16 08:13:06;;;;;;;7.50;2.90;;;22.60;84.90;;;;;;5050205;28;20043;-59
2021/03/16 08:15:46;;;;;;;6.35;2.20;;;22.70;84.90;;;;;;5072371;28;20044;-58
2021/03/16 08:18:26;;;;;;;6.70;2.35;;;22.60;84.60;;;;;;5069656;28;20052;-59
2021/03/16 08:21:15;;;;;;;4.75;2.40;;;22.70;84.50;;;;;;5067732;28;20021;-56
2021/03/16 08:23:43;;;;;;;7.95;2.80;;;22.70;84.50;;;;;;5053591;28;20043;-60
2021/03/16 08:26:17;;;;;;;4.28;2.10;;;22.70;84.20;;;;;;5071125;28;20039;-56
2021/03/16 08:28:48;;;;;;;7.15;3.42;;;22.70;84.00;;;;;;5072591;28;20107;-54
2021/03/16 08:31:16;;;;;;;7.70;2.08;;;22.70;84.00;;;;;;5071326;28;20070;-54
2021/03/16 08:33:44;;;;;;;5.10;2.17;;;22.70;83.90;;;;;;5069604;28;20187;-52
2021/03/16 08:36:12;;;;;;;8.25;2.17;;;22.70;84.00;;;;;;5071777;28;20032;-55
2021/03/16 08:38:39;;;;;;;6.78;2.40;;;22.70;84.10;;;;;;5072290;28;20028;-56
2021/03/16 08:41:16;;;;;;;5.38;1.77;;;22.70;84.00;;;;;;5071385;28;20024;-58
2021/03/16 08:43:48;;;;;;;5.63;2.60;;;22.70;84.00;;;;;;5070262;28;20059;-59
2021/03/16 08:46:26;;;;;;;3.67;2.13;;;22.70;84.10;;;;;;5053617;28;20032;-56
2021/03/16 08:48:54;;;;;;;6.82;2.00;;;22.70;84.30;;;;;;5068702;28;20467;-57
2021/03/16 08:51:27;;;;;;;4.35;2.03;;;22.70;84.40;;;;;;5070606;28;20549;-55
2021/03/16 08:53:55;;;;;;;3.45;1.52;;;22.70;84.50;;;;;;5071045;28;20037;-57
2021/03/16 08:56:25;;;;;;;6.10;2.28;;;22.70;84.30;;;;;;5072318;28;20095;-54
2021/03/16 08:58:54;;;;;;;9.43;3.05;;;22.70;84.30;;;;;;5071664;28;20035;-55
2021/03/16 09:01:30;;;;;;;6.22;2.80;;;22.60;84.30;;;;;;5070253;28;20025;-53
2021/03/16 09:04:07;;;;;;;4.25;2.05;;;22.60;84.30;;;;;;5071958;28;20031;-56
2021/03/16 09:06:35;;;;;;;7.15;2.08;;;22.60;84.20;;;;;;5071776;28;20118;-55
2021/03/16 09:09:03;;;;;;;7.32;2.17;;;22.60;84.30;;;;;;5071016;28;20029;-57
2021/03/16 09:11:37;;;;;;;3.45;1.88;;;22.60;84.40;;;;;;5068254;28;20032;-54
2021/03/16 09:14:19;;;;;;;4.57;2.05;;;22.60;84.60;;;;;;5071739;28;20089;-55
2021/03/16 09:16:54;;;;;;;5.53;2.25;;;22.60;84.60;;;;;;5067817;28;20108;-53
2021/03/16 09:19:26;;;;;;;4.22;1.85;;;22.60;85.00;;;;;;5068674;28;20044;-59
2021/03/16 09:21:55;;;;;;;4.78;2.00;;;22.60;85.80;;;;;;5067538;28;20021;-57
2021/03/16 09:24:28;;;;;;;5.75;2.72;;;22.70;86.80;;;;;;5071600;28;20028;-51
2021/03/16 09:27:00;;;;;;;8.20;2.30;;;22.70;86.60;;;;;;5071327;28;20066;-58
2021/03/16 09:29:33;;;;;;;5.88;2.53;;;22.70;86.00;;;;;;5070780;28;20021;-58
2021/03/16 09:32:09;;;;;;;5.65;2.25;;;22.70;85.40;;;;;;5067943;28;20024;-54
2021/03/16 09:34:44;;;;;;;5.97;2.03;;;22.70;85.20;;;;;;5072248;28;20371;-51
2021/03/16 09:37:14;;;;;;;7.00;1.98;;;22.80;85.10;;;;;;5070968;28;20053;-57
2021/03/16 09:39:52;;;;;;;6.65;2.20;;;22.80;85.10;;;;;;5070814;28;20040;-57
2021/03/16 09:42:36;;;;;;;2.70;1.60;;;22.80;84.90;;;;;;5066102;28;20024;-57
2021/03/16 09:45:06;;;;;;;8.88;1.90;;;22.80;84.70;;;;;;5069388;28;20029;-58
2021/03/16 09:47:33;;;;;;;5.40;2.13;;;22.80;84.70;;;;;;5070510;28;20075;-57
2021/03/16 09:50:15;;;;;;;6.80;1.80;;;22.80;84.70;;;;;;5068391;28;21704;-58
2021/03/16 09:52:43;;;;;;;;;;;22.80;84.50;;;;;;5067723;28;20025;-65
2021/03/16 09:55:11;;;;;;;4.38;1.90;;;22.80;84.40;;;;;;5070339;28;19915;-63
2021/03/16 09:57:38;;;;;;;3.53;1.67;;;22.80;84.40;;;;;;5052515;28;20100;-62
2021/03/16 10:00:10;;;;;;;8.05;1.77;;;22.80;84.30;;;;;;5070689;28;20074;-55
2021/03/16 10:02:40;;;;;;;5.70;2.00;;;22.80;84.30;;;;;;5066119;28;20024;-58
2021/03/16 10:05:18;;;;;;;4.07;1.80;;;22.90;84.30;;;;;;5068357;28;20143;-52
2021/03/16 10:07:53;;;;;;;7.82;2.08;;;22.80;84.20;;;;;;5069253;28;20048;-58
2021/03/16 10:10:23;;;;;;;6.85;2.00;;;22.80;84.10;;;;;;5067443;28;20070;-58
2021/03/16 10:13:06;;;;;;;5.95;1.90;;;22.80;84.20;;;;;;5061216;28;20120;-57
2021/03/16 10:15:39;;;;;;;4.57;1.98;;;22.80;84.10;;;;;;5065687;28;20025;-59
2021/03/16 10:18:11;;;;;;;4.40;1.95;;;22.80;84.10;;;;;;5067655;28;20040;-63
2021/03/16 10:20:41;;;;;;;8.95;2.30;;;22.70;84.10;;;;;;5064757;28;20119;-62
2021/03/16 10:23:12;;;;;;;5.40;1.75;;;22.70;84.10;;;;;;5064373;28;20483;-62
2021/03/16 10:25:40;;;;;;;3.85;1.50;;;22.70;84.00;;;;;;5069693;28;20073;-58
2021/03/16 10:28:09;;;;;;;4.47;2.00;;;22.70;84.00;;;;;;5069184;28;20059;-59
2021/03/16 10:30:44;;;;;;;4.35;1.73;;;22.70;83.90;;;;;;5069059;28;20028;-57
2021/03/16 10:33:14;;;;;;;5.05;2.17;;;22.70;83.80;;;;;;5066980;28;20601;-52
2021/03/16 10:35:45;;;;;;;7.75;2.00;;;22.70;83.80;;;;;;5070365;28;20032;-56
2021/03/16 10:38:12;;;;;;;5.45;1.90;;;22.70;83.80;;;;;;5069313;28;20101;-60
2021/03/16 10:40:40;;;;;;;6.07;2.28;;;22.70;83.60;;;;;;5069825;28;20025;-62
2021/03/16 10:43:07;;;;;;;6.72;2.78;;;22.70;83.80;;;;;;5066063;28;20047;-62
2021/03/16 10:45:35;;;;;;;6.40;2.28;;;22.70;83.60;;;;;;5068667;28;20378;-55
2021/03/16 10:48:02;;;;;;;5.10;2.05;;;22.70;83.50;;;;;;5069659;28;20052;-58
2021/03/16 10:50:30;;;;;;;5.18;1.73;;;22.70;83.60;;;;;;5069730;28;20427;-58
2021/03/16 10:52:57;;;;;;;6.63;2.35;;;22.70;83.40;;;;;;5066331;28;20087;-56
2021/03/16 10:55:25;;;;;;;3.00;1.90;;;22.70;83.40;;;;;;5069225;28;20118;-62
2021/03/16 10:57:52;;;;;;;7.78;2.13;;;22.70;83.30;;;;;;5048043;28;20024;-58
2021/03/16 11:00:20;;;;;;;5.20;2.30;;;22.70;83.80;;;;;;5069555;28;20082;-56
2021/03/16 11:02:48;;;;;;;4.35;1.65;;;22.70;83.10;;;;;;5065453;28;20016;-54
2021/03/16 11:05:15;;;;;;;6.93;2.53;;;22.60;83.00;;;;;;5069546;28;20056;-54
2021/03/16 11:07:43;;;;;;;5.88;2.28;;;22.60;83.00;;;;;;5051286;28;20487;-61
2021/03/16 11:10:11;;;;;;;5.93;1.98;;;22.60;82.90;;;;;;5069265;28;20047;-60
2021/03/16 11:12:38;;;;;;;7.07;2.47;;;22.60;82.70;;;;;;5065532;28;20534;-59
2021/03/16 11:15:07;;;;;;;6.72;2.20;;;22.60;82.70;;;;;;5051477;28;20485;-62
2021/03/16 11:17:34;;;;;;;5.90;2.13;;;22.60;82.60;;;;;;5068938;28;20036;-59
2021/03/16 11:20:02;;;;;;;5.82;1.98;;;22.60;82.60;;;;;;5068867;28;20028;-57
2021/03/16 11:22:29;;;;;;;5.28;1.80;;;22.60;82.50;;;;;;5065852;28;20047;-60
2021/03/16 11:24:57;;;;;;;4.68;2.00;;;22.60;82.50;;;;;;5069445;28;20024;-59
2021/03/16 11:27:24;;;;;;;5.90;1.90;;;22.60;82.50;;;;;;5066810;28;20036;-59
2021/03/16 11:29:52;;;;;;;5.40;2.00;;;22.60;82.40;;;;;;5068410;28;20025;-57
2021/03/16 11:32:20;;;;;;;6.68;2.40;;;22.60;82.50;;;;;;5066096;28;20066;-59
2021/03/16 11:34:47;;;;;;;7.97;2.22;;;22.60;82.50;;;;;;5069453;28;20074;-58
2021/03/16 11:37:15;;;;;;;8.73;2.38;;;22.60;82.50;;;;;;5068517;28;20024;-59
2021/03/16 11:39:44;;;;;;;9.15;2.60;;;22.50;82.50;;;;;;5071575;28;20029;-59
2021/03/16 11:42:12;;;;;;;11.30;2.97;;;22.50;82.60;;;;;;5070472;28;20110;-51
2021/03/16 11:44:40;;;;;;;8.02;2.33;;;22.60;82.80;;;;;;5073321;28;20017;-55
2021/03/16 11:47:08;;;;;;;6.05;2.05;;;22.50;82.40;;;;;;5073085;28;20072;-54
2021/03/16 11:49:35;;;;;;;10.25;2.53;;;22.50;82.50;;;;;;5073311;28;20352;-54
2021/03/16 11:52:03;;;;;;;8.57;2.33;;;22.50;82.30;;;;;;5070058;28;20064;-58
2021/03/16 11:54:31;;;;;;;5.82;1.92;;;22.50;82.40;;;;;;5072611;28;20021;-59
2021/03/16 11:56:58;;;;;;;7.50;2.20;;;22.40;82.40;;;;;;5072962;28;20024;-66
2021/03/16 11:59:26;;;;;;;6.57;2.42;;;22.40;82.50;;;;;;5075420;28;20029;-66
2021/03/16 12:01:54;;;;;;;9.52;2.20;;;22.40;82.40;;;;;;5075362;28;20032;-64
2021/03/16 12:04:21;;;;;;;6.28;2.08;;;22.40;82.30;;;;;;5075370;28;20013;-66
2021/03/16 12:06:48;;;;;;;7.22;2.15;;;22.40;82.30;;;;;;5074940;28;20052;-57
2021/03/16 12:09:16;;;;;;;8.52;2.92;;;22.40;82.30;;;;;;5075400;28;20025;-59
2021/03/16 12:11:44;;;;;;;7.30;2.08;;;22.40;82.00;;;;;;5075172;28;20049;-64
2021/03/16 12:14:11;;;;;;;7.03;2.10;;;22.40;82.20;;;;;;5074890;28;20494;-64
2021/03/16 12:16:38;;;;;;;8.60;2.25;;;22.40;82.20;;;;;;5075386;28;20486;-67
2021/03/16 12:19:06;;;;;;;4.05;2.10;;;22.40;82.20;;;;;;5075138;28;20029;-66
2021/03/16 12:21:33;;;;;;;8.73;2.72;;;22.40;82.20;;;;;;5075189;28;20479;-65
2021/03/16 12:24:01;;;;;;;9.18;2.55;;;22.40;82.20;;;;;;5060802;28;20025;-61
2021/03/16 12:26:28;;;;;;;8.10;2.05;;;22.40;82.20;;;;;;5070353;28;20036;-55
2021/03/16 12:28:56;;;;;;;6.47;2.13;;;22.30;82.10;;;;;;5039342;28;20021;-59
2021/03/16 12:31:24;;;;;;;8.27;2.22;;;22.30;82.00;;;;;;5068009;28;20021;-60
2021/03/16 12:33:52;;;;;;;4.75;1.58;;;22.30;82.10;;;;;;5071169;28;20024;-62
2021/03/16 12:36:20;;;;;;;7.90;2.33;;;22.30;82.10;;;;;;5070298;28;20063;-56
2021/03/16 12:38:47;;;;;;;5.97;2.05;;;22.30;82.00;;;;;;5071400;28;20119;-64
2021/03/16 12:41:15;;;;;;;7.50;2.20;;;22.30;82.00;;;;;;5071712;28;20028;-61
2021/03/16 12:43:42;;;;;;;6.50;2.20;;;22.30;82.10;;;;;;5070838;28;20032;-62
2021/03/16 12:46:10;;;;;;;7.82;2.20;;;22.30;82.10;;;;;;5071872;28;20040;-58
2021/03/16 12:48:37;;;;;;;7.20;1.98;;;22.20;82.00;;;;;;5069366;28;20025;-61
2021/03/16 12:51:06;;;;;;;8.13;2.67;;;22.30;82.10;;;;;;5070542;28;20372;-59
2021/03/16 12:53:33;;;;;;;6.18;2.13;;;22.30;82.40;;;;;;5053860;28;20490;-56
2021/03/16 12:56:00;;;;;;;7.88;2.33;;;22.30;82.20;;;;;;5068300;28;20032;-59
2021/03/16 12:58:28;;;;;;;10.00;2.28;;;22.20;82.10;;;;;;5049935;28;20059;-57
2021/03/16 13:00:55;;;;;;;7.88;2.25;;;22.20;82.40;;;;;;5070426;28;20027;-57
2021/03/16 13:03:23;;;;;;;7.63;2.65;;;22.20;82.30;;;;;;5071972;28;20024;-58
2021/03/16 13:05:50;;;;;;;7.38;2.50;;;22.20;82.30;;;;;;5071092;28;20040;-58
2021/03/16 13:08:18;;;;;;;9.43;2.75;;;22.20;82.30;;;;;;5067819;28;20031;-55
2021/03/16 13:10:45;;;;;;;7.15;2.28;;;22.20;82.30;;;;;;5071647;28;20025;-57
2021/03/16 13:13:13;;;;;;;4.25;2.20;;;22.10;82.30;;;;;;5071496;28;20060;-58
2021/03/16 13:15:40;;;;;;;9.05;2.47;;;22.20;82.30;;;;;;5071334;28;20500;-60
2021/03/16 13:18:08;;;;;;;7.35;2.10;;;22.10;82.40;;;;;;5067592;28;20467;-55